Time;durP1;ratioP1;P1;durP2;ratioP2;P2;SDS_P1;SDS_P2;PMS_P1;PMS_P2;Temp;Humidity;BMP_temperature;BMP_pressure;BME280_temperature;BME280_humidity;BME280_pressure;Samples;Min_cycle;Max_cycle;Signal;HPM_P1;HPM_P2
2022/07/04 00:00:18;;;;;;;8.77;4.72;;;;;;;;;;4982690;28;20085;-63
2022/07/04 00:02:45;;;;;;;7.75;4.10;;;;;;;;;;4980992;28;20054;-64
2022/07/04 00:05:11;;;;;;;8.73;4.28;;;;;;;;;;4981979;28;20468;-63
2022/07/04 00:07:38;;;;;;;9.13;4.30;;;;;;;;;;4981609;28;20145;-63
2022/07/04 00:10:05;;;;;;;9.20;4.35;;;;;;;;;;4980719;28;20034;-64
2022/07/04 00:12:31;;;;;;;7.03;4.57;;;;;;;;;;4976818;28;20120;-64
2022/07/04 00:14:58;;;;;;;10.00;3.90;;;;;;;;;;4962409;28;20042;-64
2022/07/04 00:17:24;;;;;;;6.50;3.92;;;;;;;;;;4976499;28;20414;-63
2022/07/04 00:19:50;;;;;;;8.05;4.22;;;;;;;;;;4991574;28;20050;-64
2022/07/04 00:22:16;;;;;;;8.25;4.13;;;;;;;;;;4973119;28;20072;-64
2022/07/04 00:24:42;;;;;;;5.93;4.10;;;;;;;;;;4979516;28;20121;-64
2022/07/04 00:27:09;;;;;;;7.68;4.40;;;;;;;;;;4981606;28;20037;-64
2022/07/04 00:29:35;;;;;;;7.65;4.50;;;;;;;;;;4983410;28;20133;-64
2022/07/04 00:32:02;;;;;;;8.15;4.20;;;;;;;;;;4977066;28;20046;-63
2022/07/04 00:34:28;;;;;;;7.68;4.65;;;;;;;;;;4982854;28;20042;-63
2022/07/04 00:36:54;;;;;;;9.68;4.22;;;;;;;;;;4979068;28;20132;-64
2022/07/04 00:39:21;;;;;;;9.50;3.78;;;;;;;;;;4976295;28;20611;-64
2022/07/04 00:41:47;;;;;;;7.15;4.68;;;;;;;;;;4977905;28;20034;-63
2022/07/04 00:44:15;;;;;;;6.40;4.30;;;;;;;;;;4978370;28;20038;-63
2022/07/04 00:46:42;;;;;;;7.35;5.07;;;;;;;;;;4975968;28;20116;-64
2022/07/04 00:49:09;;;;;;;6.65;4.60;;;;;;;;;;4980440;28;20127;-64
2022/07/04 00:51:37;;;;;;;11.95;5.03;;;;;;;;;;4962799;28;20070;-63
2022/07/04 00:54:03;;;;;;;8.02;4.90;;;;;;;;;;4980166;28;20059;-63
2022/07/04 00:56:30;;;;;;;8.25;5.47;;;;;;;;;;4977703;28;20077;-64
2022/07/04 00:58:58;;;;;;;8.55;4.90;;;;;;;;;;4974076;28;20046;-64
2022/07/04 01:01:25;;;;;;;9.05;5.50;;;;;;;;;;4963157;28;20055;-63
2022/07/04 01:03:51;;;;;;;8.60;5.10;;;;;;;;;;4977848;28;20458;-63
2022/07/04 01:06:19;;;;;;;9.43;4.85;;;;;;;;;;4980359;28;20448;-64
2022/07/04 01:08:45;;;;;;;10.85;4.63;;;;;;;;;;4961507;28;20047;-64
2022/07/04 01:11:12;;;;;;;9.38;5.50;;;;;;;;;;4962108;28;20061;-63
2022/07/04 01:13:38;;;;;;;8.35;5.70;;;;;;;;;;4964134;28;20119;-63
2022/07/04 01:16:04;;;;;;;11.32;5.38;;;;;;;;;;4979202;28;20323;-64
2022/07/04 01:18:31;;;;;;;11.15;7.00;;;;;;;;;;4978909;28;20568;-64
2022/07/04 01:20:57;;;;;;;9.38;5.65;;;;;;;;;;4961694;28;20060;-63
2022/07/04 01:23:24;;;;;;;8.20;5.47;;;;;;;;;;4961732;28;20047;-64
2022/07/04 01:25:50;;;;;;;9.15;5.20;;;;;;;;;;4959762;28;20073;-63
2022/07/04 01:28:16;;;;;;;10.50;5.72;;;;;;;;;;4973632;28;20046;-64
2022/07/04 01:30:43;;;;;;;12.15;6.10;;;;;;;;;;4977144;28;20051;-64
2022/07/04 01:33:09;;;;;;;10.93;6.65;;;;;;;;;;4959149;28;20047;-63
2022/07/04 01:35:35;;;;;;;10.60;6.00;;;;;;;;;;4984042;28;20126;-64
2022/07/04 01:38:01;;;;;;;11.27;5.80;;;;;;;;;;4981163;28;20514;-64
2022/07/04 01:40:28;;;;;;;9.43;5.70;;;;;;;;;;4981519;28;20074;-63
2022/07/04 01:42:54;;;;;;;10.25;5.85;;;;;;;;;;4984783;28;20048;-64
2022/07/04 01:45:20;;;;;;;12.30;6.68;;;;;;;;;;4982423;28;20054;-64
2022/07/04 01:47:46;;;;;;;10.50;6.13;;;;;;;;;;4969301;28;20038;-64
2022/07/04 01:50:12;;;;;;;10.48;6.15;;;;;;;;;;4982412;28;20118;-64
2022/07/04 01:52:39;;;;;;;11.52;6.57;;;;;;;;;;4964473;28;20046;-63
2022/07/04 01:55:06;;;;;;;10.10;6.38;;;;;;;;;;4979690;28;20048;-64
2022/07/04 01:57:32;;;;;;;11.90;6.70;;;;;;;;;;4981530;28;20100;-64
2022/07/04 02:02:43;;;;;;;10.52;7.18;;;;;;;;;;4965092;28;20423;-64
2022/07/04 02:05:10;;;;;;;8.23;5.95;;;;;;;;;;4983587;28;20962;-64
2022/07/04 02:07:36;;;;;;;10.75;6.80;;;;;;;;;;4981550;28;20488;-64
2022/07/04 02:10:03;;;;;;;10.07;6.80;;;;;;;;;;4974749;28;21290;-64
2022/07/04 02:15:14;;;;;;;9.32;6.55;;;;;;;;;;4981535;28;20421;-64
2022/07/04 02:17:40;;;;;;;10.77;6.30;;;;;;;;;;4982681;28;20054;-64
2022/07/04 02:20:07;;;;;;;9.98;6.28;;;;;;;;;;4979447;28;20046;-64
2022/07/04 02:22:33;;;;;;;11.98;6.72;;;;;;;;;;4982371;28;20474;-64
2022/07/04 02:24:59;;;;;;;15.07;6.85;;;;;;;;;;4966291;28;20069;-64
2022/07/04 02:27:25;;;;;;;11.23;7.45;;;;;;;;;;4984052;28;20049;-64
2022/07/04 02:29:51;;;;;;;10.63;6.05;;;;;;;;;;4982608;28;20402;-64
2022/07/04 02:32:18;;;;;;;9.73;6.05;;;;;;;;;;4981554;28;20111;-64
2022/07/04 02:34:44;;;;;;;13.68;6.00;;;;;;;;;;4981821;28;20508;-64
2022/07/04 02:37:10;;;;;;;16.52;6.20;;;;;;;;;;4962048;28;20054;-64
2022/07/04 02:39:36;;;;;;;8.52;5.80;;;;;;;;;;4979439;28;20477;-64
2022/07/04 02:42:02;;;;;;;11.88;6.00;;;;;;;;;;4977870;28;20084;-64
2022/07/04 02:44:30;;;;;;;9.55;5.50;;;;;;;;;;4977545;28;20129;-64
2022/07/04 02:46:56;;;;;;;11.23;5.80;;;;;;;;;;4977947;28;20069;-64
2022/07/04 02:49:23;;;;;;;6.60;4.47;;;;;;;;;;4982205;28;20030;-64
2022/07/04 02:51:49;;;;;;;8.15;5.00;;;;;;;;;;4978002;28;20042;-64
2022/07/04 02:54:16;;;;;;;9.23;4.97;;;;;;;;;;4981569;28;20367;-64
2022/07/04 02:56:42;;;;;;;11.55;5.70;;;;;;;;;;4978506;28;20115;-64
2022/07/04 02:59:08;;;;;;;9.18;4.78;;;;;;;;;;4979961;28;20443;-64
2022/07/04 03:01:35;;;;;;;7.82;5.72;;;;;;;;;;4962409;28;20043;-64
2022/07/04 03:04:02;;;;;;;9.93;5.65;;;;;;;;;;4980845;28;20057;-64
2022/07/04 03:06:29;;;;;;;10.05;6.15;;;;;;;;;;4979887;28;20659;-64
2022/07/04 03:08:55;;;;;;;8.02;4.78;;;;;;;;;;4981855;28;20046;-64
2022/07/04 03:11:21;;;;;;;8.68;5.28;;;;;;;;;;4979879;28;20445;-64
2022/07/04 03:13:47;;;;;;;12.85;6.45;;;;;;;;;;4979432;28;20454;-64
2022/07/04 03:16:13;;;;;;;10.27;5.82;;;;;;;;;;4982040;28;20057;-64
2022/07/04 03:18:40;;;;;;;9.85;5.50;;;;;;;;;;4980183;28;20426;-64
2022/07/04 03:21:06;;;;;;;6.07;4.63;;;;;;;;;;4963859;28;20061;-64
2022/07/04 03:23:33;;;;;;;11.95;5.20;;;;;;;;;;4981661;28;20050;-64
2022/07/04 03:25:59;;;;;;;12.65;5.90;;;;;;;;;;4964617;28;20124;-64
2022/07/04 03:28:25;;;;;;;9.45;5.68;;;;;;;;;;4980541;28;20042;-64
2022/07/04 03:30:52;;;;;;;8.88;5.78;;;;;;;;;;4983590;28;20042;-64
2022/07/04 03:33:18;;;;;;;10.35;5.55;;;;;;;;;;4982648;28;20149;-64
2022/07/04 03:35:44;;;;;;;10.15;6.00;;;;;;;;;;4962665;28;20062;-65
2022/07/04 03:38:11;;;;;;;11.10;5.72;;;;;;;;;;4965297;28;20050;-65
2022/07/04 03:40:38;;;;;;;10.25;5.40;;;;;;;;;;4981163;28;20065;-65
2022/07/04 03:43:06;;;;;;;7.85;5.63;;;;;;;;;;4983192;28;20081;-65
2022/07/04 03:45:32;;;;;;;14.25;6.25;;;;;;;;;;4963751;28;20055;-65
2022/07/04 03:47:59;;;;;;;18.42;8.00;;;;;;;;;;4964552;28;20769;-65
2022/07/04 03:50:25;;;;;;;14.52;6.97;;;;;;;;;;4980453;28;20046;-65
2022/07/04 03:52:51;;;;;;;9.80;6.38;;;;;;;;;;4964208;28;20445;-65
2022/07/04 03:55:18;;;;;;;10.98;6.95;;;;;;;;;;4979660;28;20066;-65
2022/07/04 03:57:44;;;;;;;13.07;6.72;;;;;;;;;;4977505;28;20088;-65
2022/07/04 04:00:11;;;;;;;10.20;6.32;;;;;;;;;;4967103;28;20485;-65
2022/07/04 04:02:38;;;;;;;11.15;7.05;;;;;;;;;;4966225;28;20379;-65
2022/07/04 04:05:36;;;;;;;17.63;7.50;;;;;;;;;;4983980;28;21907;-65
2022/07/04 04:08:02;;;;;;;11.65;6.53;;;;;;;;;;4963661;28;20505;-66
2022/07/04 04:10:29;;;;;;;12.65;6.88;;;;;;;;;;4982415;28;20156;-65
2022/07/04 04:12:55;;;;;;;12.80;7.28;;;;;;;;;;4980648;28;20052;-65
2022/07/04 04:15:21;;;;;;;13.85;7.78;;;;;;;;;;4981442;28;20076;-65
2022/07/04 04:17:48;;;;;;;13.02;7.15;;;;;;;;;;4979990;28;20061;-65
2022/07/04 04:20:14;;;;;;;10.90;7.45;;;;;;;;;;4963604;28;20137;-65
2022/07/04 04:22:40;;;;;;;13.13;7.18;;;;;;;;;;4980221;28;20042;-65
2022/07/04 04:25:07;;;;;;;9.88;6.78;;;;;;;;;;4979155;28;20406;-65
2022/07/04 04:27:33;;;;;;;14.90;7.15;;;;;;;;;;4962117;28;20054;-65
2022/07/04 04:29:59;;;;;;;14.02;7.80;;;;;;;;;;4978864;28;20042;-65
2022/07/04 04:32:26;;;;;;;12.43;7.57;;;;;;;;;;4977066;28;20042;-65
2022/07/04 04:34:52;;;;;;;10.20;6.82;;;;;;;;;;4978935;28;20121;-65
2022/07/04 04:37:18;;;;;;;14.32;7.55;;;;;;;;;;4977537;28;21087;-65
2022/07/04 04:39:44;;;;;;;11.40;6.43;;;;;;;;;;4976688;28;20151;-65
2022/07/04 04:42:10;;;;;;;14.52;7.35;;;;;;;;;;4959657;28;20073;-65
2022/07/04 04:44:37;;;;;;;15.02;7.47;;;;;;;;;;4979169;28;20048;-65
2022/07/04 04:47:03;;;;;;;11.23;7.20;;;;;;;;;;4960400;28;20042;-65
2022/07/04 04:49:29;;;;;;;16.35;7.00;;;;;;;;;;4978706;28;20126;-65
2022/07/04 04:51:55;;;;;;;17.10;8.18;;;;;;;;;;4970708;28;20068;-65
2022/07/04 04:54:21;;;;;;;12.68;8.15;;;;;;;;;;4973175;28;20455;-65
2022/07/04 04:56:48;;;;;;;11.93;8.45;;;;;;;;;;4970010;28;20059;-65
2022/07/04 04:59:14;;;;;;;17.42;8.10;;;;;;;;;;4975938;28;20042;-65
2022/07/04 05:01:40;;;;;;;15.27;8.85;;;;;;;;;;4979516;28;20487;-65
2022/07/04 05:04:06;;;;;;;13.00;8.50;;;;;;;;;;4961542;28;20059;-65
2022/07/04 05:06:32;;;;;;;13.32;9.52;;;;;;;;;;4979881;28;20117;-65
2022/07/04 05:08:59;;;;;;;12.18;9.60;;;;;;;;;;4979818;28;20061;-65
2022/07/04 05:11:25;;;;;;;17.85;9.18;;;;;;;;;;4977457;28;20042;-65
2022/07/04 05:13:51;;;;;;;14.23;9.35;;;;;;;;;;4976530;28;20618;-65
2022/07/04 05:16:17;;;;;;;13.57;8.75;;;;;;;;;;4977790;28;20146;-64
2022/07/04 05:18:43;;;;;;;16.23;9.00;;;;;;;;;;4978130;28;20038;-64
2022/07/04 05:21:10;;;;;;;19.45;8.75;;;;;;;;;;4978772;28;20058;-64
2022/07/04 05:23:36;;;;;;;17.30;8.50;;;;;;;;;;4979304;28;20359;-64
2022/07/04 05:26:02;;;;;;;12.25;6.50;;;;;;;;;;4980866;28;20169;-64
2022/07/04 05:28:28;;;;;;;13.45;6.93;;;;;;;;;;4980205;28;20393;-65
2022/07/04 05:30:54;;;;;;;15.27;6.10;;;;;;;;;;4963254;28;20050;-64
2022/07/04 05:33:21;;;;;;;13.68;5.40;;;;;;;;;;4983174;28;20047;-65
2022/07/04 05:35:47;;;;;;;11.70;5.47;;;;;;;;;;4981664;28;20049;-65
2022/07/04 05:38:13;;;;;;;13.70;5.90;;;;;;;;;;4959679;28;20541;-64
2022/07/04 05:40:39;;;;;;;12.45;5.60;;;;;;;;;;4958015;28;20061;-65
2022/07/04 05:43:05;;;;;;;7.72;5.68;;;;;;;;;;4983064;28;20041;-64
2022/07/04 05:45:32;;;;;;;13.98;6.07;;;;;;;;;;4990177;28;20401;-64
2022/07/04 05:47:58;;;;;;;12.95;5.63;;;;;;;;;;4994025;28;20099;-64
2022/07/04 05:50:24;;;;;;;8.90;4.78;;;;;;;;;;4989844;28;20042;-64
2022/07/04 05:52:50;;;;;;;12.80;5.03;;;;;;;;;;4970571;28;20481;-64
2022/07/04 05:55:16;;;;;;;17.35;5.80;;;;;;;;;;4991694;28;20052;-64
2022/07/04 05:57:43;;;;;;;12.35;4.53;;;;;;;;;;4989288;28;20331;-64
2022/07/04 06:00:09;;;;;;;10.98;4.65;;;;;;;;;;4994480;28;20049;-64
2022/07/04 06:02:37;;;;;;;8.18;4.40;;;;;;;;;;4988925;28;20400;-63
2022/07/04 06:05:03;;;;;;;9.93;3.95;;;;;;;;;;4990706;28;20042;-64
2022/07/04 06:07:29;;;;;;;16.10;4.93;;;;;;;;;;4988490;28;20085;-64
2022/07/04 06:09:57;;;;;;;8.90;4.15;;;;;;;;;;4988956;28;20474;-64
2022/07/04 06:12:23;;;;;;;13.75;4.70;;;;;;;;;;4988968;28;20055;-64
2022/07/04 06:14:49;;;;;;;15.68;4.72;;;;;;;;;;4989065;28;20066;-64
2022/07/04 06:17:15;;;;;;;9.27;4.13;;;;;;;;;;4990217;28;20062;-64
2022/07/04 06:19:42;;;;;;;7.43;3.85;;;;;;;;;;4970475;28;20103;-64
2022/07/04 06:22:08;;;;;;;9.45;4.50;;;;;;;;;;4989604;28;20401;-65
2022/07/04 06:24:34;;;;;;;9.57;4.07;;;;;;;;;;4973241;28;20047;-65
2022/07/04 06:27:00;;;;;;;7.72;3.13;;;;;;;;;;4991148;28;20046;-65
2022/07/04 06:29:27;;;;;;;11.07;3.90;;;;;;;;;;4974662;28;20478;-64
2022/07/04 06:31:53;;;;;;;11.18;3.10;;;;;;;;;;4988970;28;20367;-64
2022/07/04 06:37:04;;;;;;;9.32;3.55;;;;;;;;;;4986402;28;20053;-64
2022/07/04 06:39:31;;;;;;;13.88;3.25;;;;;;;;;;4987971;28;20553;-65
2022/07/04 06:41:57;;;;;;;8.65;2.45;;;;;;;;;;4987128;28;20160;-64
2022/07/04 06:44:23;;;;;;;8.00;2.13;;;;;;;;;;4985064;28;20068;-63
2022/07/04 06:46:50;;;;;;;7.20;2.13;;;;;;;;;;4986860;28;20047;-64
2022/07/04 06:49:17;;;;;;;7.72;2.80;;;;;;;;;;4987058;28;20527;-64
2022/07/04 06:51:43;;;;;;;8.70;2.50;;;;;;;;;;4969186;28;20132;-64
2022/07/04 06:54:09;;;;;;;9.65;2.55;;;;;;;;;;4986298;28;20139;-64
2022/07/04 06:56:35;;;;;;;8.00;2.08;;;;;;;;;;4970069;28;20074;-64
2022/07/04 06:59:03;;;;;;;8.65;2.30;;;;;;;;;;4985176;28;20042;-64
2022/07/04 07:01:29;;;;;;;5.82;1.90;;;;;;;;;;4987308;28;20046;-64
2022/07/04 07:03:55;;;;;;;5.22;1.55;;;;;;;;;;4969355;28;20042;-64
2022/07/04 07:06:23;;;;;;;5.43;1.33;;;;;;;;;;4987628;28;20406;-64
2022/07/04 07:08:49;;;;;;;3.95;1.20;;;;;;;;;;4988193;28;20046;-64
2022/07/04 07:11:18;;;;;;;6.28;1.70;;;;;;;;;;4987740;28;20192;-64
2022/07/04 07:13:46;;;;;;;3.58;1.52;;;;;;;;;;4986385;28;20104;-63
2022/07/04 07:16:12;;;;;;;5.40;2.15;;;;;;;;;;4987348;28;20050;-64
2022/07/04 07:18:38;;;;;;;6.85;1.45;;;;;;;;;;4987162;28;20047;-64
2022/07/04 07:21:05;;;;;;;4.90;1.75;;;;;;;;;;4985333;28;20054;-64
2022/07/04 07:23:31;;;;;;;7.28;1.65;;;;;;;;;;4987496;28;20034;-64
2022/07/04 07:25:57;;;;;;;4.47;1.42;;;;;;;;;;4986435;28;20046;-64
2022/07/04 07:28:23;;;;;;;4.78;1.60;;;;;;;;;;4990148;28;20486;-63
2022/07/04 07:30:49;;;;;;;6.10;1.77;;;;;;;;;;4988000;28;20039;-65
2022/07/04 07:33:15;;;;;;;3.35;1.15;;;;;;;;;;4975564;28;20050;-63
2022/07/04 07:35:42;;;;;;;6.05;1.30;;;;;;;;;;4987630;28;20524;-64
2022/07/04 07:38:08;;;;;;;6.00;1.73;;;;;;;;;;4990985;28;20405;-64
2022/07/04 07:40:34;;;;;;;4.28;1.33;;;;;;;;;;4988737;28;20091;-63
2022/07/04 07:43:00;;;;;;;4.05;1.25;;;;;;;;;;4988405;28;20042;-64
2022/07/04 07:45:27;;;;;;;7.63;1.45;;;;;;;;;;4988996;28;20078;-63
2022/07/04 07:47:53;;;;;;;8.20;1.17;;;;;;;;;;4988463;28;20064;-63
2022/07/04 07:50:19;;;;;;;3.88;1.55;;;;;;;;;;4989610;28;20050;-64
2022/07/04 07:52:45;;;;;;;5.95;1.50;;;;;;;;;;4970697;28;20069;-64
2022/07/04 07:55:11;;;;;;;4.93;1.33;;;;;;;;;;4968054;28;20429;-65
2022/07/04 07:57:38;;;;;;;4.10;0.90;;;;;;;;;;4988940;28;20099;-64
2022/07/04 08:00:05;;;;;;;4.95;1.25;;;;;;;;;;4988787;28;20035;-64
2022/07/04 08:05:16;;;;;;;3.28;1.10;;;;;;;;;;4965965;28;20049;-64
2022/07/04 08:07:42;;;;;;;5.38;1.33;;;;;;;;;;4987740;28;20497;-64
2022/07/04 08:10:09;;;;;;;6.43;1.20;;;;;;;;;;4966170;28;20095;-64
2022/07/04 08:12:36;;;;;;;6.50;1.25;;;;;;;;;;4988748;28;20104;-64
2022/07/04 08:15:02;;;;;;;3.65;0.90;;;;;;;;;;4970745;28;20551;-64
2022/07/04 08:17:28;;;;;;;4.63;1.20;;;;;;;;;;4984941;28;20096;-64
2022/07/04 08:19:54;;;;;;;3.72;1.17;;;;;;;;;;4982045;28;20034;-64
2022/07/04 08:22:21;;;;;;;4.30;1.17;;;;;;;;;;4984699;28;20119;-64
2022/07/04 08:24:47;;;;;;;4.72;1.20;;;;;;;;;;4985646;28;20512;-64
2022/07/04 08:27:13;;;;;;;3.40;1.10;;;;;;;;;;4985695;28;20494;-64
2022/07/04 08:29:40;;;;;;;5.43;1.45;;;;;;;;;;4968163;28;20547;-64
2022/07/04 08:32:07;;;;;;;4.18;1.42;;;;;;;;;;4984711;28;20078;-63
2022/07/04 08:34:34;;;;;;;6.68;1.45;;;;;;;;;;4986460;28;20072;-64
2022/07/04 08:37:01;;;;;;;4.40;1.30;;;;;;;;;;4968554;28;20052;-64
2022/07/04 08:39:27;;;;;;;6.32;1.30;;;;;;;;;;4986676;28;20125;-63
2022/07/04 08:41:56;;;;;;;5.45;1.20;;;;;;;;;;4985802;28;20063;-64
2022/07/04 08:44:24;;;;;;;5.47;1.30;;;;;;;;;;4990293;28;20042;-64
2022/07/04 08:46:52;;;;;;;4.30;1.15;;;;;;;;;;4985416;28;20038;-64
2022/07/04 08:49:21;;;;;;;4.13;1.10;;;;;;;;;;4990215;28;20482;-64
2022/07/04 08:51:53;;;;;;;8.30;1.65;;;;;;;;;;4985604;28;20050;-63
2022/07/04 08:59:50;;;;;;;4.50;1.30;;;;;;;;;;4973283;28;20375;-63
2022/07/04 09:02:17;;;;;;;7.05;1.45;;;;;;;;;;4976358;28;21030;-63
2022/07/04 09:04:44;;;;;;;4.05;1.30;;;;;;;;;;4976096;28;20088;-63
2022/07/04 09:07:12;;;;;;;4.25;1.30;;;;;;;;;;4980038;28;20426;-64
2022/07/04 09:09:40;;;;;;;6.43;1.27;;;;;;;;;;4980160;28;20498;-63
2022/07/04 09:12:07;;;;;;;5.30;1.52;;;;;;;;;;4976134;28;20482;-64
2022/07/04 09:14:34;;;;;;;5.78;1.63;;;;;;;;;;4980509;28;20269;-64
2022/07/04 09:17:00;;;;;;;4.30;1.33;;;;;;;;;;4975830;28;20570;-64
2022/07/04 09:19:26;;;;;;;7.82;1.70;;;;;;;;;;4979234;28;20927;-64
2022/07/04 09:21:52;;;;;;;4.53;1.35;;;;;;;;;;4961327;28;20050;-64
2022/07/04 09:24:38;;;;;;;10.32;2.28;;;;;;;;;;4980650;28;20066;-63
2022/07/04 09:27:04;;;;;;;6.10;1.77;;;;;;;;;;4976554;28;20043;-63
2022/07/04 09:29:30;;;;;;;4.60;1.35;;;;;;;;;;4979262;28;20038;-64
2022/07/04 09:31:56;;;;;;;5.40;1.38;;;;;;;;;;4976465;28;20392;-64
2022/07/04 09:34:22;;;;;;;6.47;2.08;;;;;;;;;;4976448;28;20058;-64
2022/07/04 09:36:54;;;;;;;4.97;1.23;;;;;;;;;;4978405;28;20152;-64
2022/07/04 09:39:21;;;;;;;3.40;1.08;;;;;;;;;;4977665;28;20458;-64
2022/07/04 09:41:52;;;;;;;4.55;1.20;;;;;;;;;;4975901;28;20054;-63
2022/07/04 09:44:18;;;;;;;4.22;1.00;;;;;;;;;;4976230;28;20422;-64
2022/07/04 09:46:45;;;;;;;4.00;0.82;;;;;;;;;;4981206;28;20176;-63
2022/07/04 09:49:11;;;;;;;5.47;1.52;;;;;;;;;;4981755;28;20055;-64
2022/07/04 09:51:43;;;;;;;5.90;1.08;;;;;;;;;;4980903;28;20117;-64
2022/07/04 09:54:14;;;;;;;5.78;1.00;;;;;;;;;;4979538;28;20046;-64
2022/07/04 09:56:42;;;;;;;3.77;0.93;;;;;;;;;;4987714;28;20058;-64
2022/07/04 09:59:08;;;;;;;3.47;1.00;;;;;;;;;;4984704;28;20129;-64
2022/07/04 10:01:35;;;;;;;3.05;0.80;;;;;;;;;;4987232;28;20520;-64
2022/07/04 10:04:03;;;;;;;3.08;1.08;;;;;;;;;;4987190;28;20050;-64
2022/07/04 10:06:32;;;;;;;2.72;1.00;;;;;;;;;;4986714;28;20759;-64
2022/07/04 10:09:08;;;;;;;2.55;0.82;;;;;;;;;;4982450;28;20436;-64
2022/07/04 10:11:34;;;;;;;3.45;0.90;;;;;;;;;;4985015;28;20043;-64
2022/07/04 10:14:01;;;;;;;3.78;1.00;;;;;;;;;;4982564;28;20050;-63
2022/07/04 10:16:28;;;;;;;4.78;0.90;;;;;;;;;;4980827;28;20050;-65
2022/07/04 10:18:55;;;;;;;4.10;1.00;;;;;;;;;;4983704;28;20078;-64
2022/07/04 10:21:21;;;;;;;3.38;0.70;;;;;;;;;;4981507;28;20410;-64
2022/07/04 10:23:48;;;;;;;3.35;1.02;;;;;;;;;;4978154;28;20497;-64
2022/07/04 10:26:18;;;;;;;4.53;0.93;;;;;;;;;;4987771;28;20049;-64
2022/07/04 10:28:45;;;;;;;3.38;0.98;;;;;;;;;;4988220;28;20038;-64
2022/07/04 10:31:13;;;;;;;1.85;0.80;;;;;;;;;;4982449;28;20125;-64
2022/07/04 10:33:39;;;;;;;4.07;1.38;;;;;;;;;;4981685;28;20051;-64
2022/07/04 10:36:14;;;;;;;3.40;0.77;;;;;;;;;;4981420;28;21003;-64
2022/07/04 10:38:47;;;;;;;5.68;0.98;;;;;;;;;;4963874;28;20119;-64
2022/07/04 10:41:13;;;;;;;4.47;0.90;;;;;;;;;;4977533;28;20050;-64
2022/07/04 10:43:49;;;;;;;5.47;0.90;;;;;;;;;;4978891;28;20042;-64
2022/07/04 10:46:15;;;;;;;4.13;0.90;;;;;;;;;;4985763;28;20046;-64
2022/07/04 10:48:49;;;;;;;4.35;1.13;;;;;;;;;;4986020;28;20129;-64
2022/07/04 10:51:15;;;;;;;4.15;0.90;;;;;;;;;;4971213;28;20778;-64
2022/07/04 10:53:59;;;;;;;3.65;1.02;;;;;;;;;;4972202;28;20451;-64
2022/07/04 10:56:26;;;;;;;4.15;0.77;;;;;;;;;;4983216;28;20057;-64
2022/07/04 10:58:53;;;;;;;2.65;0.75;;;;;;;;;;4979589;28;20125;-64
2022/07/04 11:01:20;;;;;;;3.63;1.00;;;;;;;;;;4983750;28;20571;-64
2022/07/04 11:03:46;;;;;;;3.90;0.88;;;;;;;;;;4985540;28;20129;-65
2022/07/04 11:06:38;;;;;;;6.00;1.08;;;;;;;;;;4984199;28;20057;-65
2022/07/04 11:09:20;;;;;;;3.65;0.90;;;;;;;;;;4982029;28;20035;-64
2022/07/04 11:11:52;;;;;;;3.80;1.10;;;;;;;;;;4984663;28;20075;-64
2022/07/04 11:14:31;;;;;;;5.22;0.98;;;;;;;;;;4986884;28;20130;-64
2022/07/04 11:16:57;;;;;;;2.95;1.00;;;;;;;;;;4988585;28;20382;-64
2022/07/04 11:19:23;;;;;;;4.68;1.10;;;;;;;;;;4991355;28;20071;-64
2022/07/04 11:21:50;;;;;;;2.67;1.00;;;;;;;;;;4994229;28;20043;-64
2022/07/04 11:24:16;;;;;;;4.55;1.20;;;;;;;;;;4990459;28;20610;-64
2022/07/04 11:26:42;;;;;;;3.25;0.98;;;;;;;;;;4967814;28;20086;-64
2022/07/04 11:29:08;;;;;;;5.60;1.08;;;;;;;;;;4981929;28;20555;-64
2022/07/04 11:31:35;;;;;;;2.58;0.80;;;;;;;;;;4976381;28;20158;-64
2022/07/04 11:34:02;;;;;;;8.48;1.10;;;;;;;;;;4993709;28;20668;-65
2022/07/04 11:36:29;;;;;;;3.13;0.73;;;;;;;;;;4990407;28;20092;-65
2022/07/04 11:38:57;;;;;;;3.72;0.95;;;;;;;;;;4990947;28;20419;-64
2022/07/04 11:47:02;;;;;;;2.42;0.85;;;;;;;;;;4986345;28;20054;-65
2022/07/04 11:49:28;;;;;;;2.95;0.88;;;;;;;;;;4983108;28;20062;-64
2022/07/04 11:51:55;;;;;;;2.85;0.60;;;;;;;;;;4986157;28;20062;-64
2022/07/04 11:54:22;;;;;;;1.88;0.60;;;;;;;;;;4984708;28;20378;-64
2022/07/04 11:56:49;;;;;;;2.13;0.70;;;;;;;;;;4966834;28;20043;-64
2022/07/04 11:59:16;;;;;;;4.15;0.90;;;;;;;;;;4982061;28;20042;-64
2022/07/04 12:01:43;;;;;;;2.15;0.70;;;;;;;;;;4978204;28;20481;-64
2022/07/04 12:04:15;;;;;;;2.33;0.68;;;;;;;;;;4984338;28;20056;-64
2022/07/04 12:06:42;;;;;;;3.20;0.60;;;;;;;;;;4965865;28;20055;-64
2022/07/04 12:09:08;;;;;;;3.53;0.70;;;;;;;;;;4980782;28;20050;-64
2022/07/04 12:11:50;;;;;;;2.92;0.63;;;;;;;;;;4982290;28;20764;-65
2022/07/04 12:14:17;;;;;;;2.97;0.70;;;;;;;;;;4962634;28;20436;-65
2022/07/04 12:16:43;;;;;;;2.40;0.68;;;;;;;;;;5049943;28;20137;-65
2022/07/04 12:19:10;;;;;;;2.20;0.57;;;;;;;;;;4982603;28;20541;-64
2022/07/04 12:21:36;;;;;;;3.28;0.90;;;;;;;;;;4964090;28;20042;-64
2022/07/04 12:24:03;;;;;;;3.67;0.60;;;;;;;;;;4976413;28;20091;-64
2022/07/04 12:26:30;;;;;;;3.05;0.63;;;;;;;;;;4978613;28;20107;-64
2022/07/04 12:28:57;;;;;;;4.18;0.55;;;;;;;;;;5031026;28;20054;-65
2022/07/04 12:31:43;;;;;;;6.95;0.70;;;;;;;;;;4980112;28;20065;-64
2022/07/04 12:34:16;;;;;;;3.83;0.80;;;;;;;;;;4984846;28;20047;-64
2022/07/04 12:36:50;;;;;;;5.13;0.80;;;;;;;;;;4982719;28;20038;-64
2022/07/04 12:39:29;;;;;;;3.85;0.63;;;;;;;;;;4979834;28;20095;-65
2022/07/04 12:42:06;;;;;;;4.22;0.80;;;;;;;;;;4958126;28;20057;-64
2022/07/04 12:44:32;;;;;;;7.95;1.00;;;;;;;;;;4957703;28;20061;-64
2022/07/04 12:46:59;;;;;;;3.80;0.70;;;;;;;;;;4974708;28;20406;-64
2022/07/04 12:49:25;;;;;;;4.05;0.77;;;;;;;;;;4975773;28;20043;-64
2022/07/04 12:51:52;;;;;;;5.68;1.05;;;;;;;;;;4980597;28;20490;-64
2022/07/04 12:54:18;;;;;;;6.47;0.80;;;;;;;;;;4953030;28;20058;-64
2022/07/04 12:56:45;;;;;;;5.32;0.80;;;;;;;;;;4970983;28;20133;-64
2022/07/04 12:59:14;;;;;;;6.32;0.80;;;;;;;;;;4972989;28;20039;-64
2022/07/04 13:01:41;;;;;;;4.70;1.00;;;;;;;;;;4955961;28;20613;-64
2022/07/04 13:04:07;;;;;;;2.92;0.82;;;;;;;;;;4961507;28;20517;-64
2022/07/04 13:06:34;;;;;;;2.22;0.50;;;;;;;;;;4981034;28;20412;-64
2022/07/04 13:09:00;;;;;;;3.63;0.70;;;;;;;;;;4974590;28;20060;-64
2022/07/04 13:14:12;;;;;;;2.10;0.60;;;;;;;;;;4978054;28;20050;-64
2022/07/04 13:16:38;;;;;;;5.90;0.80;;;;;;;;;;4976685;28;20084;-64
2022/07/04 13:19:04;;;;;;;2.40;0.65;;;;;;;;;;4960678;28;20520;-64
2022/07/04 13:21:31;;;;;;;2.63;0.73;;;;;;;;;;4980355;28;20056;-64
2022/07/04 13:23:57;;;;;;;3.90;0.60;;;;;;;;;;4985023;28;20045;-64
2022/07/04 13:26:24;;;;;;;3.90;0.70;;;;;;;;;;4973755;28;20395;-64
2022/07/04 13:28:50;;;;;;;2.80;0.43;;;;;;;;;;4961939;28;20070;-64
2022/07/04 13:31:16;;;;;;;3.38;0.68;;;;;;;;;;4983603;28;20054;-64
2022/07/04 13:33:42;;;;;;;2.03;0.70;;;;;;;;;;4980506;28;20057;-64
2022/07/04 13:36:09;;;;;;;4.40;0.95;;;;;;;;;;4982413;28;20050;-64
2022/07/04 13:38:35;;;;;;;4.70;0.65;;;;;;;;;;4983549;28;20046;-64
2022/07/04 13:41:01;;;;;;;3.60;0.60;;;;;;;;;;4970772;28;20585;-64
2022/07/04 13:43:28;;;;;;;3.55;0.70;;;;;;;;;;4986636;28;20060;-65
2022/07/04 13:45:55;;;;;;;2.47;0.77;;;;;;;;;;4983254;28;20079;-65
2022/07/04 13:48:21;;;;;;;4.53;0.80;;;;;;;;;;4979479;28;20051;-65
2022/07/04 13:50:47;;;;;;;6.70;0.70;;;;;;;;;;4983517;28;20501;-64
2022/07/04 13:53:13;;;;;;;4.55;0.70;;;;;;;;;;4986620;28;20408;-65
2022/07/04 13:55:40;;;;;;;2.75;0.60;;;;;;;;;;4967896;28;20043;-65
2022/07/04 13:58:07;;;;;;;2.45;0.70;;;;;;;;;;4975737;28;20048;-64
2022/07/04 14:00:34;;;;;;;3.97;0.57;;;;;;;;;;4957755;28;20043;-65
2022/07/04 14:03:00;;;;;;;3.92;1.10;;;;;;;;;;4972083;28;20089;-64
2022/07/04 14:05:26;;;;;;;6.88;1.38;;;;;;;;;;4984796;28;20880;-64
2022/07/04 14:07:53;;;;;;;3.53;1.02;;;;;;;;;;4985772;28;20586;-64
2022/07/04 14:10:19;;;;;;;3.20;0.82;;;;;;;;;;4965897;28;20038;-65
2022/07/04 14:12:46;;;;;;;2.95;0.63;;;;;;;;;;4983720;28;20079;-64
2022/07/04 14:15:12;;;;;;;2.78;0.70;;;;;;;;;;4967698;28;20358;-65
2022/07/04 14:17:39;;;;;;;5.70;0.70;;;;;;;;;;4983628;28;20108;-64
2022/07/04 14:20:07;;;;;;;4.40;0.63;;;;;;;;;;4967609;28;20239;-64
2022/07/04 14:22:33;;;;;;;4.57;0.80;;;;;;;;;;4982689;28;20057;-64
2022/07/04 14:24:59;;;;;;;4.10;0.80;;;;;;;;;;4986476;28;20042;-64
2022/07/04 14:27:25;;;;;;;5.57;0.85;;;;;;;;;;4983795;28;20070;-64
2022/07/04 14:29:52;;;;;;;3.95;0.80;;;;;;;;;;4982570;28;20125;-64
2022/07/04 14:32:18;;;;;;;4.53;0.70;;;;;;;;;;4984511;28;20422;-64
2022/07/04 14:34:44;;;;;;;4.20;0.95;;;;;;;;;;4985378;28;20434;-64
2022/07/04 14:37:10;;;;;;;3.78;0.77;;;;;;;;;;4989190;28;20042;-64
2022/07/04 14:39:37;;;;;;;5.03;0.90;;;;;;;;;;4985013;28;20034;-65
2022/07/04 14:42:03;;;;;;;2.97;1.02;;;;;;;;;;4983535;28;20053;-64
2022/07/04 14:44:29;;;;;;;4.88;0.60;;;;;;;;;;4986058;28;20046;-64
2022/07/04 14:46:55;;;;;;;3.33;0.80;;;;;;;;;;4985341;28;20107;-64
2022/07/04 14:49:22;;;;;;;5.78;0.70;;;;;;;;;;4969841;28;20065;-64
2022/07/04 14:51:48;;;;;;;4.32;0.60;;;;;;;;;;4975533;28;20056;-64
2022/07/04 14:54:14;;;;;;;2.75;0.70;;;;;;;;;;4980329;28;20051;-65
2022/07/04 14:56:40;;;;;;;4.15;0.70;;;;;;;;;;4965483;28;20141;-65
2022/07/04 14:59:07;;;;;;;3.15;0.63;;;;;;;;;;4968798;28;20050;-64
2022/07/04 15:01:33;;;;;;;4.80;0.82;;;;;;;;;;4980152;28;20054;-65